Time;durP1;ratioP1;P1;durP2;ratioP2;P2;SDS_P1;SDS_P2;PMS_P1;PMS_P2;Temp;Humidity;BMP_temperature;BMP_pressure;BME280_temperature;BME280_humidity;BME280_pressure;Samples;Min_cycle;Max_cycle;Signal;HPM_P1;HPM_P2
2022/08/31 00:04:01;;;;;;;9.80;6.32;;;17.60;99.90;;;;;;5078446;28;20549;-32
2022/08/31 00:06:30;;;;;;;7.60;6.28;;;17.60;99.90;;;;;;5069428;28;20077;-33
2022/08/31 00:08:56;;;;;;;9.32;6.55;;;17.60;99.90;;;;;;5089455;28;20152;-33
2022/08/31 00:11:34;;;;;;;8.18;6.13;;;17.60;99.90;;;;;;5083192;28;20016;-32
2022/08/31 00:14:04;;;;;;;6.88;5.30;;;17.60;99.90;;;;;;5087959;28;20557;-32
2022/08/31 00:16:33;;;;;;;7.15;5.70;;;17.70;99.90;;;;;;5084431;28;20035;-32
2022/08/31 00:18:58;;;;;;;8.05;6.50;;;17.80;99.90;;;;;;5084209;28;20759;-32
2022/08/31 00:21:26;;;;;;;7.97;6.15;;;17.80;99.90;;;;;;5080401;28;20037;-33
2022/08/31 00:23:53;;;;;;;10.45;5.82;;;17.80;99.90;;;;;;5085020;28;20082;-32
2022/08/31 00:26:21;;;;;;;7.40;5.90;;;17.70;99.90;;;;;;5078715;28;20348;-31
2022/08/31 00:28:47;;;;;;;7.32;6.28;;;17.80;99.90;;;;;;5085064;28;20477;-32
2022/08/31 00:31:13;;;;;;;9.00;5.93;;;17.80;99.90;;;;;;5081454;28;20043;-32
2022/08/31 00:33:39;;;;;;;8.52;6.47;;;17.80;99.90;;;;;;5069332;28;20035;-32
2022/08/31 00:36:07;;;;;;;11.10;6.63;;;17.70;99.90;;;;;;5083329;28;20051;-32
2022/08/31 00:38:33;;;;;;;;;;;17.70;99.90;;;;;;5084167;28;20028;-40
2022/08/31 00:40:58;;;;;;;9.52;6.10;;;17.60;99.90;;;;;;5067327;28;19951;-39
2022/08/31 00:43:36;;;;;;;9.40;6.15;;;17.60;99.90;;;;;;5086506;28;20062;-39
2022/08/31 00:46:02;;;;;;;10.43;6.50;;;17.60;99.90;;;;;;5084225;28;20028;-40
2022/08/31 00:48:28;;;;;;;7.68;6.05;;;17.60;99.90;;;;;;5084743;28;20505;-39
2022/08/31 00:50:55;;;;;;;7.60;6.07;;;17.60;99.90;;;;;;5085991;28;20544;-40
2022/08/31 00:53:21;;;;;;;10.27;6.28;;;17.60;99.90;;;;;;5060184;28;20382;-36
2022/08/31 00:55:47;;;;;;;9.18;6.35;;;17.60;99.90;;;;;;5087451;28;20043;-39
2022/08/31 00:58:13;;;;;;;7.70;5.93;;;17.60;99.90;;;;;;5056959;28;20817;-40
2022/08/31 01:00:41;;;;;;;7.00;5.43;;;17.60;99.90;;;;;;5082247;28;20166;-39
2022/08/31 01:03:08;;;;;;;7.72;5.95;;;17.60;99.90;;;;;;5076149;28;20035;-41
2022/08/31 01:05:35;;;;;;;7.43;5.57;;;17.60;99.90;;;;;;5084188;28;20022;-39
2022/08/31 01:08:02;;;;;;;8.30;6.57;;;17.70;99.90;;;;;;5078492;28;20032;-40
2022/08/31 01:10:32;;;;;;;10.57;7.10;;;17.70;99.90;;;;;;5080334;28;20166;-42
2022/08/31 01:12:58;;;;;;;8.63;6.05;;;17.60;99.90;;;;;;5082193;28;20024;-38
2022/08/31 01:15:26;;;;;;;7.63;6.00;;;17.60;99.90;;;;;;5080015;28;20024;-39
2022/08/31 01:17:55;;;;;;;10.05;6.00;;;17.60;99.90;;;;;;5080410;28;20469;-40
2022/08/31 01:20:34;;;;;;;7.90;6.13;;;17.60;99.90;;;;;;5085520;28;20606;-42
2022/08/31 01:23:14;;;;;;;8.55;6.78;;;17.70;99.90;;;;;;5076521;28;20044;-40
2022/08/31 01:25:43;;;;;;;9.45;6.80;;;17.80;99.90;;;;;;5084268;28;20043;-40
2022/08/31 01:28:09;;;;;;;9.48;6.00;;;17.70;99.90;;;;;;5078188;28;20024;-41
2022/08/31 01:30:37;;;;;;;9.60;5.95;;;17.60;99.90;;;;;;5079013;28;20107;-40
2022/08/31 01:33:03;;;;;;;9.45;6.38;;;17.60;99.90;;;;;;5079100;28;20080;-38
2022/08/31 01:35:29;;;;;;;7.97;6.38;;;17.60;99.90;;;;;;5084756;28;20535;-38
2022/08/31 01:37:56;;;;;;;9.07;5.88;;;17.60;99.90;;;;;;5082668;28;20409;-40
2022/08/31 01:40:28;;;;;;;8.60;6.20;;;17.60;99.90;;;;;;5085377;28;20074;-40
2022/08/31 01:42:54;;;;;;;8.18;6.80;;;17.60;99.90;;;;;;5082129;28;20379;-42
2022/08/31 01:45:20;;;;;;;7.45;6.10;;;17.50;99.90;;;;;;5083877;28;20028;-39
2022/08/31 01:47:45;;;;;;;8.73;6.60;;;17.40;99.90;;;;;;5083396;28;20111;-39
2022/08/31 01:50:11;;;;;;;10.20;6.57;;;17.40;99.90;;;;;;5067566;28;20027;-40
2022/08/31 01:52:37;;;;;;;8.38;5.88;;;17.40;99.90;;;;;;5082125;28;20397;-35
2022/08/31 01:55:05;;;;;;;9.55;6.20;;;17.40;99.90;;;;;;5083840;28;20051;-42
2022/08/31 01:57:30;;;;;;;8.15;6.07;;;17.40;99.90;;;;;;5084728;28;20028;-40
2022/08/31 01:59:59;;;;;;;8.15;6.15;;;17.50;99.90;;;;;;5081476;28;20694;-41
2022/08/31 02:02:25;;;;;;;9.68;6.35;;;17.50;99.90;;;;;;5078444;28;20536;-41
2022/08/31 02:04:50;;;;;;;8.18;5.90;;;17.50;99.90;;;;;;5066478;28;20055;-40
2022/08/31 02:07:16;;;;;;;8.00;6.15;;;17.50;99.90;;;;;;5077778;28;20159;-41
2022/08/31 02:09:42;;;;;;;8.88;6.43;;;17.50;99.90;;;;;;5082363;28;20028;-42
2022/08/31 02:12:07;;;;;;;7.47;5.70;;;17.50;99.90;;;;;;5076839;28;20043;-41
2022/08/31 02:14:33;;;;;;;11.88;6.80;;;17.30;99.90;;;;;;5065208;28;20039;-42
2022/08/31 02:16:58;;;;;;;8.93;6.78;;;17.30;99.90;;;;;;5079014;28;20041;-40
2022/08/31 02:19:24;;;;;;;10.00;6.85;;;17.30;99.90;;;;;;5080048;28;20088;-38
2022/08/31 02:21:50;;;;;;;9.38;6.43;;;17.30;99.90;;;;;;5079263;28;20237;-42
2022/08/31 02:24:15;;;;;;;9.75;6.85;;;17.30;99.90;;;;;;5082298;28;20024;-39
2022/08/31 02:26:41;;;;;;;9.35;6.35;;;17.30;99.90;;;;;;5079255;28;20031;-39
2022/08/31 02:29:08;;;;;;;8.63;6.28;;;17.30;99.90;;;;;;5066366;28;20047;-38
2022/08/31 02:31:34;;;;;;;10.38;7.18;;;17.20;99.90;;;;;;5054289;28;20554;-38
2022/08/31 02:34:01;;;;;;;8.50;6.15;;;17.20;99.90;;;;;;5059454;28;20119;-39
2022/08/31 02:36:27;;;;;;;12.75;6.97;;;17.20;99.90;;;;;;5081350;28;20485;-40
2022/08/31 02:38:53;;;;;;;8.05;6.55;;;17.20;99.90;;;;;;5080994;28;20074;-41
2022/08/31 02:41:19;;;;;;;9.32;6.35;;;17.20;99.90;;;;;;5082783;28;20051;-41
2022/08/31 02:43:44;;;;;;;7.65;6.50;;;17.20;99.90;;;;;;5077047;28;20074;-40
2022/08/31 02:46:10;;;;;;;10.57;6.78;;;17.20;99.90;;;;;;5052825;28;20027;-38
2022/08/31 02:48:36;;;;;;;7.13;6.28;;;17.20;99.90;;;;;;5080570;28;20104;-34
2022/08/31 02:51:07;;;;;;;8.23;6.22;;;17.10;99.90;;;;;;5093885;28;20155;-35
2022/08/31 02:53:33;;;;;;;8.90;6.43;;;17.10;99.90;;;;;;5090231;28;20032;-31
2022/08/31 02:55:59;;;;;;;7.95;6.15;;;17.00;99.90;;;;;;5095641;28;20127;-33
2022/08/31 02:58:25;;;;;;;8.70;6.18;;;17.00;99.90;;;;;;5090388;28;20047;-34
2022/08/31 03:00:51;;;;;;;8.30;6.32;;;17.00;99.90;;;;;;5090926;28;20032;-34
2022/08/31 03:03:18;;;;;;;9.52;6.50;;;17.10;99.90;;;;;;5094571;28;20032;-32
2022/08/31 03:05:43;;;;;;;8.60;6.38;;;17.10;99.90;;;;;;5082446;28;20036;-32
2022/08/31 03:08:09;;;;;;;9.85;5.82;;;17.20;99.90;;;;;;5092481;28;20020;-35
2022/08/31 03:10:35;;;;;;;9.98;6.78;;;17.20;99.90;;;;;;5089810;28;20063;-35
2022/08/31 03:13:01;;;;;;;9.88;6.43;;;17.20;99.90;;;;;;5093068;28;20028;-33
2022/08/31 03:15:27;;;;;;;8.60;5.88;;;17.10;99.90;;;;;;5090933;28;20028;-31
2022/08/31 03:17:53;;;;;;;8.27;6.50;;;17.10;99.90;;;;;;5093585;28;20031;-33
2022/08/31 03:20:21;;;;;;;8.73;6.68;;;17.20;99.90;;;;;;5093465;28;20047;-36
2022/08/31 03:22:47;;;;;;;8.90;6.43;;;17.20;99.90;;;;;;5087196;28;20020;-32
2022/08/31 03:25:13;;;;;;;9.80;6.90;;;17.10;99.90;;;;;;5066970;28;20088;-34
2022/08/31 03:27:39;;;;;;;10.55;6.53;;;17.20;99.90;;;;;;5090818;28;20047;-32
2022/08/31 03:30:07;;;;;;;8.18;6.55;;;17.20;99.90;;;;;;5095083;28;20030;-31
2022/08/31 03:32:33;;;;;;;9.80;6.20;;;17.20;99.90;;;;;;5092153;28;20036;-32
2022/08/31 03:35:00;;;;;;;10.77;7.18;;;17.20;99.90;;;;;;5092812;28;20524;-34
2022/08/31 03:37:27;;;;;;;7.72;6.05;;;17.10;99.90;;;;;;5094992;28;20043;-31
2022/08/31 03:39:52;;;;;;;7.82;6.35;;;17.10;99.90;;;;;;5097660;28;20031;-34
2022/08/31 03:42:18;;;;;;;11.20;6.38;;;17.10;99.90;;;;;;5098541;28;20024;-31
2022/08/31 03:44:45;;;;;;;9.35;6.85;;;17.00;99.90;;;;;;5097149;28;20035;-33
2022/08/31 03:47:11;;;;;;;8.63;6.57;;;17.00;99.90;;;;;;5099404;28;20076;-31
2022/08/31 03:49:37;;;;;;;9.15;6.22;;;17.00;99.90;;;;;;5097251;28;20059;-34
2022/08/31 03:52:03;;;;;;;10.80;6.93;;;17.00;99.90;;;;;;5078626;28;20039;-32
2022/08/31 03:54:28;;;;;;;10.88;7.00;;;16.90;99.90;;;;;;5089361;28;20016;-33
2022/08/31 03:56:54;;;;;;;11.70;6.82;;;16.90;99.90;;;;;;5096197;28;20032;-33
2022/08/31 03:59:20;;;;;;;7.80;6.47;;;16.80;99.90;;;;;;5092384;28;20020;-31
2022/08/31 04:01:46;;;;;;;8.57;6.85;;;16.80;99.90;;;;;;5094907;28;20057;-31
2022/08/31 04:04:12;;;;;;;10.02;6.82;;;16.90;99.90;;;;;;5094017;28;20035;-33
2022/08/31 04:06:43;;;;;;;8.77;6.88;;;16.90;99.90;;;;;;5081540;28;20024;-31
2022/08/31 04:09:09;;;;;;;8.45;6.57;;;16.80;99.90;;;;;;5095217;28;20047;-33
2022/08/31 04:11:39;;;;;;;8.35;6.25;;;16.80;99.90;;;;;;5090566;28;20024;-31
2022/08/31 04:14:05;;;;;;;8.68;6.97;;;16.80;99.90;;;;;;5091878;28;20031;-32
2022/08/31 04:16:32;;;;;;;11.05;7.38;;;16.80;99.90;;;;;;5096705;28;20377;-34
2022/08/31 04:18:58;;;;;;;10.75;6.78;;;16.80;99.90;;;;;;5096939;28;20031;-33
2022/08/31 04:21:26;;;;;;;11.43;7.85;;;16.80;99.90;;;;;;5094555;28;20070;-33
2022/08/31 04:23:53;;;;;;;;;;;16.70;99.90;;;;;;5080402;28;20265;-31
2022/08/31 04:26:23;;;;;;;11.82;7.13;;;16.70;99.90;;;;;;5095474;28;20002;-31
2022/08/31 04:28:50;;;;;;;11.13;7.30;;;16.60;99.90;;;;;;5091203;28;20028;-33
2022/08/31 04:31:17;;;;;;;9.93;7.03;;;16.60;99.90;;;;;;5093645;28;20039;-34
2022/08/31 04:33:43;;;;;;;10.07;7.07;;;16.60;99.90;;;;;;5097818;28;20031;-32
2022/08/31 04:36:12;;;;;;;10.57;7.30;;;16.60;99.90;;;;;;5097809;28;20035;-31
2022/08/31 04:38:39;;;;;;;11.63;6.90;;;16.60;99.90;;;;;;5097934;28;20039;-31
2022/08/31 04:41:10;;;;;;;10.17;6.97;;;16.70;99.90;;;;;;5098367;28;20162;-31
2022/08/31 04:43:39;;;;;;;11.05;7.22;;;16.80;99.90;;;;;;5075752;28;20163;-34
2022/08/31 04:46:07;;;;;;;7.57;6.38;;;16.90;99.90;;;;;;5096000;28;20028;-32
2022/08/31 04:48:34;;;;;;;8.70;6.30;;;16.90;99.90;;;;;;5072840;28;20337;-33
2022/08/31 04:51:20;;;;;;;7.88;6.50;;;16.90;99.90;;;;;;5094666;28;20044;-35
2022/08/31 04:53:46;;;;;;;11.50;7.00;;;17.00;99.90;;;;;;5093486;28;20058;-33
2022/08/31 04:56:15;;;;;;;10.38;6.43;;;17.00;99.90;;;;;;5096190;28;20103;-31
2022/08/31 04:58:46;;;;;;;10.18;6.95;;;17.00;99.90;;;;;;5090802;28;20473;-34
2022/08/31 05:01:16;;;;;;;10.55;6.28;;;17.00;99.90;;;;;;5095471;28;20036;-31
2022/08/31 05:03:42;;;;;;;10.52;6.32;;;17.00;99.90;;;;;;5091863;28;20079;-34
2022/08/31 05:06:16;;;;;;;11.40;7.50;;;16.90;99.90;;;;;;5094885;28;20020;-37
2022/08/31 05:08:43;;;;;;;9.90;6.35;;;16.80;99.90;;;;;;5095750;28;20027;-34
2022/08/31 05:11:11;;;;;;;14.30;7.60;;;16.90;99.90;;;;;;5077594;28;20075;-35
2022/08/31 05:13:37;;;;;;;9.50;6.95;;;16.90;99.90;;;;;;5094127;28;20020;-34
2022/08/31 05:16:09;;;;;;;9.25;7.28;;;17.00;99.90;;;;;;5065357;28;20489;-31
2022/08/31 05:18:36;;;;;;;10.05;7.10;;;17.00;99.90;;;;;;5094062;28;20059;-33
2022/08/31 05:21:35;;;;;;;10.48;6.80;;;17.00;99.90;;;;;;5078078;28;20414;-31
2022/08/31 05:24:04;;;;;;;10.90;8.23;;;16.90;99.90;;;;;;5078614;28;20095;-33
2022/08/31 05:26:36;;;;;;;8.93;6.22;;;16.80;99.90;;;;;;5075736;28;20488;-32
2022/08/31 05:29:04;;;;;;;8.82;7.00;;;16.70;99.90;;;;;;5088948;28;20057;-31
2022/08/31 05:31:31;;;;;;;12.15;7.15;;;16.80;99.90;;;;;;5090179;28;20089;-33
2022/08/31 05:33:58;;;;;;;9.35;7.38;;;16.80;99.90;;;;;;5071735;28;20071;-31
2022/08/31 05:36:25;;;;;;;10.10;7.63;;;16.70;99.90;;;;;;5094106;28;20131;-33
2022/08/31 05:38:52;;;;;;;10.27;7.95;;;16.70;99.90;;;;;;5095717;28;20039;-32
2022/08/31 05:41:21;;;;;;;11.23;7.32;;;16.70;99.90;;;;;;5094875;28;20028;-33
2022/08/31 05:43:47;;;;;;;8.80;6.43;;;16.70;99.90;;;;;;5095612;28;20032;-34
2022/08/31 05:46:14;;;;;;;10.05;6.90;;;16.70;99.90;;;;;;5096133;28;20024;-32
2022/08/31 05:48:40;;;;;;;11.82;7.45;;;16.80;99.90;;;;;;5095726;28;20024;-32
2022/08/31 05:51:10;;;;;;;9.88;6.65;;;16.70;99.90;;;;;;5096230;28;21320;-32
2022/08/31 05:53:37;;;;;;;9.30;6.97;;;16.80;99.90;;;;;;5086050;28;20047;-34
2022/08/31 05:56:09;;;;;;;9.43;6.70;;;16.80;99.90;;;;;;5095639;28;20059;-33
2022/08/31 05:58:37;;;;;;;12.27;7.03;;;16.90;99.90;;;;;;5089679;28;20025;-32
2022/08/31 06:01:10;;;;;;;9.98;7.18;;;17.00;99.90;;;;;;5091559;28;20561;-34
2022/08/31 06:03:36;;;;;;;12.02;6.90;;;17.00;99.90;;;;;;5078082;28;20020;-31
2022/08/31 06:06:02;;;;;;;9.50;6.90;;;17.00;99.90;;;;;;5078720;28;20162;-33
2022/08/31 06:08:27;;;;;;;10.40;7.35;;;16.90;99.90;;;;;;5093187;28;20472;-32
2022/08/31 06:10:56;;;;;;;8.55;6.60;;;16.90;99.90;;;;;;5093971;28;20032;-35
2022/08/31 06:13:22;;;;;;;12.30;7.68;;;16.90;99.90;;;;;;5094373;28;20463;-33
2022/08/31 06:15:48;;;;;;;9.32;6.93;;;16.90;99.90;;;;;;5095270;28;20036;-33
2022/08/31 06:18:13;;;;;;;9.43;6.80;;;16.80;99.90;;;;;;5092215;28;20044;-31
2022/08/31 06:20:39;;;;;;;8.50;6.47;;;16.90;99.90;;;;;;5089762;28;20457;-33
2022/08/31 06:23:07;;;;;;;12.45;6.60;;;17.00;99.90;;;;;;5092715;28;20027;-33
2022/08/31 06:25:35;;;;;;;9.50;6.38;;;17.10;99.90;;;;;;5096599;28;20511;-32
2022/08/31 06:28:06;;;;;;;11.02;7.10;;;17.20;99.90;;;;;;5091980;28;20108;-37
2022/08/31 06:30:36;;;;;;;7.80;6.10;;;17.30;99.90;;;;;;5091728;28;20083;-33
2022/08/31 06:33:03;;;;;;;7.40;6.05;;;17.40;99.90;;;;;;5092640;28;20024;-32
2022/08/31 06:35:29;;;;;;;9.23;6.47;;;17.50;99.90;;;;;;5093359;28;20031;-33
2022/08/31 06:37:55;;;;;;;9.25;6.18;;;17.50;99.90;;;;;;5094450;28;20304;-32
2022/08/31 06:40:23;;;;;;;9.25;6.18;;;17.60;99.90;;;;;;5094349;28;20024;-32
2022/08/31 06:42:49;;;;;;;12.30;6.55;;;17.60;99.90;;;;;;5092773;28;20020;-33
2022/08/31 06:45:14;;;;;;;10.70;7.15;;;17.70;99.90;;;;;;5091380;28;20024;-37
2022/08/31 06:47:40;;;;;;;8.52;6.15;;;17.70;99.90;;;;;;5090438;28;20032;-32
2022/08/31 06:50:06;;;;;;;8.55;6.40;;;17.70;99.90;;;;;;5088144;28;20035;-32
2022/08/31 06:52:32;;;;;;;9.50;6.50;;;17.70;99.90;;;;;;5094066;28;20031;-31
2022/08/31 06:54:57;;;;;;;10.05;6.95;;;17.70;99.90;;;;;;5088533;28;20285;-33
2022/08/31 06:57:23;;;;;;;12.90;7.35;;;17.70;99.90;;;;;;5092298;28;20079;-34
2022/08/31 06:59:52;;;;;;;9.85;7.22;;;17.70;99.90;;;;;;5091945;28;20028;-34
2022/08/31 07:02:18;;;;;;;8.30;6.70;;;17.70;99.90;;;;;;5090959;28;20380;-32
2022/08/31 07:04:44;;;;;;;11.52;7.05;;;17.80;99.90;;;;;;5093567;28;20024;-33
2022/08/31 07:07:10;;;;;;;10.10;7.53;;;17.80;99.90;;;;;;5095810;28;20369;-34
2022/08/31 07:09:38;;;;;;;9.38;6.93;;;17.80;99.90;;;;;;5093153;28;20024;-31
2022/08/31 07:12:05;;;;;;;10.00;7.03;;;17.70;99.90;;;;;;5095307;28;20077;-34
2022/08/31 07:14:31;;;;;;;10.85;7.00;;;17.80;99.90;;;;;;5068582;28;20092;-34
2022/08/31 07:16:57;;;;;;;10.30;6.72;;;17.70;99.90;;;;;;5089047;28;20052;-32
2022/08/31 07:19:24;;;;;;;9.57;7.25;;;17.70;99.90;;;;;;5091699;28;20039;-31
2022/08/31 07:21:53;;;;;;;9.35;7.15;;;17.70;99.90;;;;;;5088454;28;21788;-31
2022/08/31 07:24:23;;;;;;;8.65;6.95;;;17.60;99.90;;;;;;5093858;28;20039;-36
2022/08/31 07:26:52;;;;;;;9.18;7.03;;;17.60;99.90;;;;;;5092854;28;20025;-33
2022/08/31 07:29:20;;;;;;;11.55;6.90;;;17.50;99.90;;;;;;5093374;28;20060;-34
2022/08/31 07:31:47;;;;;;;13.15;6.97;;;17.50;99.90;;;;;;5091793;28;20039;-32
2022/08/31 07:34:15;;;;;;;8.95;6.95;;;17.40;99.90;;;;;;5095858;28;20028;-32
2022/08/31 07:42:17;;;;;;;8.68;6.70;;;17.40;99.90;;;;;;5087411;28;20154;-35
2022/08/31 07:44:47;;;;;;;8.40;6.40;;;17.40;99.90;;;;;;5094743;28;20048;-31
2022/08/31 07:47:19;;;;;;;9.25;6.82;;;17.50;99.90;;;;;;5093774;28;20032;-32
2022/08/31 07:49:49;;;;;;;10.10;7.00;;;17.60;99.90;;;;;;5089444;28;20147;-32
2022/08/31 07:52:23;;;;;;;7.65;6.65;;;17.50;99.90;;;;;;5093799;28;20037;-34
2022/08/31 07:54:50;;;;;;;9.23;6.70;;;17.50;99.90;;;;;;5094387;28;20024;-36
2022/08/31 07:57:18;;;;;;;8.82;7.07;;;17.50;99.90;;;;;;5094964;28;20079;-33
2022/08/31 07:59:45;;;;;;;;;;;17.60;99.90;;;;;;5095893;28;20518;-33
2022/08/31 08:02:13;;;;;;;13.00;6.83;;;17.60;99.90;;;;;;5084354;28;19928;-31
2022/08/31 08:04:41;;;;;;;10.52;7.00;;;17.60;99.90;;;;;;5079617;28;20047;-32
2022/08/31 08:07:10;;;;;;;11.55;7.40;;;17.70;99.90;;;;;;5093417;28;20044;-31
2022/08/31 08:09:35;;;;;;;;;;;17.70;99.90;;;;;;5092450;28;20024;-32
2022/08/31 08:12:05;;;;;;;8.90;6.55;;;17.60;99.90;;;;;;5089324;28;20684;-34
2022/08/31 08:14:33;;;;;;;10.38;7.13;;;17.60;99.90;;;;;;5071301;28;20024;-32
2022/08/31 08:17:00;;;;;;;8.05;6.55;;;17.60;99.90;;;;;;5091762;28;20023;-31
2022/08/31 08:19:26;;;;;;;9.00;6.75;;;17.50;99.90;;;;;;5090437;28;20051;-31
2022/08/31 08:21:51;;;;;;;12.95;7.95;;;17.50;99.90;;;;;;5092680;28;20028;-31
2022/08/31 08:24:17;;;;;;;11.63;7.60;;;17.40;99.90;;;;;;5077429;28;20587;-32
2022/08/31 08:26:45;;;;;;;10.63;7.22;;;17.40;99.90;;;;;;5098286;28;20020;-31
2022/08/31 08:29:11;;;;;;;10.50;7.65;;;17.40;99.90;;;;;;5099251;28;20028;-33
2022/08/31 08:31:36;;;;;;;13.10;7.95;;;17.40;99.90;;;;;;5091163;28;20051;-33
2022/08/31 08:34:02;;;;;;;12.70;8.05;;;17.30;99.90;;;;;;5092211;28;20066;-32
2022/08/31 08:36:34;;;;;;;9.77;7.65;;;17.30;99.90;;;;;;5096662;28;20024;-33
2022/08/31 08:39:01;;;;;;;11.35;7.75;;;17.40;99.90;;;;;;5096357;28;20024;-32
2022/08/31 08:41:30;;;;;;;10.90;7.55;;;17.40;99.90;;;;;;5098295;28;20024;-33
2022/08/31 08:43:59;;;;;;;11.43;7.35;;;17.40;99.90;;;;;;5100103;28;20028;-34
2022/08/31 08:46:38;;;;;;;11.63;7.43;;;17.40;99.90;;;;;;5094862;28;20075;-32
2022/08/31 08:49:23;;;;;;;12.40;7.53;;;17.60;99.90;;;;;;5096234;28;20078;-34
2022/08/31 08:51:54;;;;;;;11.38;8.23;;;17.60;99.90;;;;;;5077182;28;20024;-33
2022/08/31 08:54:30;;;;;;;9.35;7.00;;;17.60;99.90;;;;;;5097843;28;20032;-34
2022/08/31 08:56:58;;;;;;;9.50;6.88;;;17.60;99.90;;;;;;5093139;28;20466;-31
2022/08/31 08:59:24;;;;;;;9.52;6.47;;;17.60;99.90;;;;;;5096509;28;20024;-33
2022/08/31 09:01:55;;;;;;;12.07;7.10;;;17.50;99.90;;;;;;5092510;28;20409;-33
2022/08/31 09:04:58;;;;;;;10.38;7.18;;;17.60;99.90;;;;;;5095286;28;20067;-34
2022/08/31 09:07:36;;;;;;;9.65;6.57;;;17.60;99.90;;;;;;5096164;28;20024;-33
2022/08/31 09:10:30;;;;;;;8.50;6.10;;;17.70;99.90;;;;;;5092066;28;20024;-34
2022/08/31 09:13:24;;;;;;;8.68;6.65;;;17.70;99.90;;;;;;5091458;28;20134;-32
2022/08/31 09:16:24;;;;;;;10.20;6.45;;;17.70;99.90;;;;;;5095063;28;20063;-34
2022/08/31 09:19:04;;;;;;;9.35;6.47;;;17.70;99.90;;;;;;5092378;28;20486;-31
2022/08/31 09:21:41;;;;;;;9.85;6.35;;;17.70;99.90;;;;;;5093217;28;20168;-37
2022/08/31 09:24:14;;;;;;;11.10;6.95;;;17.70;99.90;;;;;;5077989;28;20065;-31
2022/08/31 09:27:01;;;;;;;11.38;6.38;;;17.70;99.90;;;;;;5094658;28;20016;-31
2022/08/31 09:29:30;;;;;;;8.50;6.50;;;17.70;99.90;;;;;;5098470;28;20024;-32
2022/08/31 09:32:06;;;;;;;11.10;6.70;;;17.70;99.90;;;;;;5092477;28;20043;-32
2022/08/31 09:34:39;;;;;;;8.88;6.70;;;17.80;99.90;;;;;;5094004;28;20024;-35
2022/08/31 09:37:16;;;;;;;9.50;6.50;;;17.80;99.90;;;;;;5094991;28;20043;-32
2022/08/31 09:39:47;;;;;;;10.32;6.35;;;17.80;99.90;;;;;;5089730;28;20028;-34
2022/08/31 09:42:18;;;;;;;11.77;6.80;;;17.80;99.90;;;;;;5096467;28;20131;-32
2022/08/31 09:44:48;;;;;;;9.57;7.00;;;17.80;99.90;;;;;;5088377;28;20425;-33
2022/08/31 09:47:57;;;;;;;14.00;7.65;;;17.80;99.90;;;;;;5096008;28;20840;-32
2022/08/31 09:50:45;;;;;;;7.55;6.05;;;17.80;99.90;;;;;;5088839;28;20021;-32
2022/08/31 09:56:12;;;;;;;8.63;6.43;;;17.80;99.90;;;;;;5096323;28;20554;-32
2022/08/31 09:58:43;;;;;;;8.98;6.47;;;17.90;99.90;;;;;;5092350;28;20039;-34
2022/08/31 10:01:29;;;;;;;8.82;6.13;;;17.90;99.90;;;;;;5093163;28;20070;-34
2022/08/31 10:04:16;;;;;;;9.52;6.20;;;17.90;99.90;;;;;;5092538;28;20024;-31
2022/08/31 10:07:12;;;;;;;9.43;6.83;;;18.00;99.90;;;;;;5090278;28;20166;-34
2022/08/31 10:09:45;;;;;;;9.82;7.10;;;18.00;99.90;;;;;;5096727;28;20028;-34
2022/08/31 10:12:18;;;;;;;10.18;6.72;;;18.00;99.90;;;;;;5092661;28;20035;-31
2022/08/31 10:15:02;;;;;;;12.57;6.72;;;18.00;99.90;;;;;;5092948;28;20025;-34
2022/08/31 10:17:41;;;;;;;10.10;6.57;;;18.00;99.90;;;;;;5074543;28;20081;-34
2022/08/31 10:20:15;;;;;;;10.60;6.43;;;18.10;99.90;;;;;;5094154;28;20043;-34
2022/08/31 10:22:49;;;;;;;10.93;6.80;;;18.00;99.90;;;;;;5093452;28;20298;-32
2022/08/31 10:25:30;;;;;;;9.52;6.63;;;18.00;99.90;;;;;;5091864;28;20031;-32
2022/08/31 10:28:23;;;;;;;10.10;6.47;;;18.00;99.90;;;;;;5092924;28;20512;-31
2022/08/31 10:30:58;;;;;;;13.07;8.00;;;18.10;99.90;;;;;;5094010;28;20131;-33
2022/08/31 10:35:02;;;;;;;9.60;7.15;;;18.10;99.90;;;;;;5094809;28;20032;-33
2022/08/31 10:36:23;;;;;;;9.50;6.78;;;18.00;99.90;;;;;;5095338;28;20020;-31
2022/08/31 10:38:51;;;;;;;11.23;6.90;;;18.10;99.90;;;;;;5100804;28;20060;-31
2022/08/31 10:41:17;;;;;;;;;;;18.10;99.90;;;;;;5075106;28;20089;-34
2022/08/31 10:44:00;;;;;;;9.85;6.90;;;18.10;99.90;;;;;;5095450;28;19911;-33
2022/08/31 10:46:27;;;;;;;11.00;7.07;;;18.10;99.90;;;;;;5095388;28;20050;-32
2022/08/31 10:48:57;;;;;;;9.50;7.40;;;18.10;99.90;;;;;;5093364;28;20027;-32
2022/08/31 10:51:31;;;;;;;10.52;6.78;;;18.20;99.90;;;;;;5083110;28;20060;-33
2022/08/31 10:54:23;;;;;;;10.95;7.43;;;18.20;99.90;;;;;;5095708;28;20105;-31
2022/08/31 10:57:08;;;;;;;9.68;6.70;;;18.20;99.90;;;;;;5078459;28;20238;-34
2022/08/31 10:59:48;;;;;;;7.80;6.50;;;18.20;99.90;;;;;;5101016;28;20027;-35
2022/08/31 11:02:29;;;;;;;9.82;7.30;;;18.20;99.90;;;;;;5099877;28;20031;-33
2022/08/31 11:05:07;;;;;;;10.98;7.60;;;18.20;99.90;;;;;;5098282;28;20032;-31
2022/08/31 11:08:00;;;;;;;11.75;7.30;;;18.20;99.90;;;;;;5097955;28;20052;-32
2022/08/31 11:10:50;;;;;;;13.23;8.27;;;18.20;99.90;;;;;;5097462;28;20223;-33
2022/08/31 11:13:24;;;;;;;11.27;7.63;;;18.00;99.90;;;;;;5078293;28;20525;-33
2022/08/31 11:16:07;;;;;;;12.02;8.05;;;17.80;99.90;;;;;;5095402;28;20511;-31
2022/08/31 11:18:56;;;;;;;12.52;7.88;;;17.70;99.90;;;;;;5077827;28;20035;-31
2022/08/31 11:21:34;;;;;;;9.90;7.57;;;17.60;99.90;;;;;;5075010;28;20043;-33
2022/08/31 11:24:14;;;;;;;12.00;8.07;;;17.70;99.90;;;;;;5081459;28;20185;-40
2022/08/31 11:26:49;;;;;;;12.05;7.50;;;17.70;99.90;;;;;;5100168;28;20102;-33
2022/08/31 11:29:28;;;;;;;11.65;7.15;;;17.80;99.90;;;;;;5076240;28;20388;-33
2022/08/31 11:32:05;;;;;;;13.02;7.63;;;17.80;99.90;;;;;;5093968;28;20049;-31
2022/08/31 11:34:45;;;;;;;12.95;8.10;;;17.70;99.90;;;;;;5092636;28;20093;-33
2022/08/31 11:37:12;;;;;;;10.52;7.78;;;17.70;99.90;;;;;;5087963;28;20032;-31
2022/08/31 11:39:43;;;;;;;10.18;8.00;;;17.70;99.90;;;;;;5093933;28;20028;-34
2022/08/31 11:42:11;;;;;;;11.43;7.60;;;17.70;99.90;;;;;;5094900;28;20577;-32
2022/08/31 11:44:38;;;;;;;;;;;17.70;99.90;;;;;;5094154;28;20016;-37
2022/08/31 11:47:11;;;;;;;11.00;7.82;;;17.80;99.90;;;;;;5077395;28;19916;-34
2022/08/31 11:49:37;;;;;;;12.15;7.38;;;17.80;99.90;;;;;;5090163;28;20028;-32
2022/08/31 11:52:09;;;;;;;8.88;7.43;;;17.80;99.90;;;;;;5092313;28;20118;-32
2022/08/31 11:54:40;;;;;;;10.80;7.57;;;17.80;99.90;;;;;;5092258;28;20028;-33
2022/08/31 11:57:14;;;;;;;12.68;9.10;;;17.90;99.90;;;;;;5096346;28;20058;-32
2022/08/31 11:59:48;;;;;;;9.65;7.15;;;17.90;99.90;;;;;;5100294;28;20374;-36
2022/08/31 12:02:19;;;;;;;11.23;7.88;;;17.90;99.90;;;;;;5097951;28;20028;-33
2022/08/31 12:04:46;;;;;;;10.90;7.28;;;17.80;99.90;;;;;;5099019;28;20031;-32
2022/08/31 12:07:41;;;;;;;12.43;8.35;;;17.80;99.90;;;;;;5098132;28;20035;-32
2022/08/31 12:10:24;;;;;;;14.05;8.55;;;17.80;99.90;;;;;;5096901;28;20058;-36
2022/08/31 12:13:17;;;;;;;11.00;8.32;;;17.80;99.90;;;;;;5098309;28;20028;-33
2022/08/31 12:16:02;;;;;;;10.48;8.35;;;17.80;99.90;;;;;;5096995;28;20056;-35
2022/08/31 12:18:37;;;;;;;10.80;7.43;;;17.80;99.90;;;;;;5098479;28;20028;-31
2022/08/31 12:24:27;;;;;;;11.82;7.45;;;17.80;99.90;;;;;;5094249;28;20054;-32
2022/08/31 12:27:08;;;;;;;13.13;8.68;;;17.90;99.90;;;;;;5096587;28;20031;-32
2022/08/31 12:29:39;;;;;;;10.05;8.40;;;17.90;99.90;;;;;;5093195;28;20050;-32
2022/08/31 12:32:30;;;;;;;14.23;8.70;;;17.90;99.90;;;;;;5096387;28;20095;-33
2022/08/31 12:35:22;;;;;;;10.95;8.38;;;17.90;99.90;;;;;;5092734;28;20036;-31
2022/08/31 12:37:58;;;;;;;9.98;7.82;;;17.80;99.90;;;;;;5095106;28;20020;-31
2022/08/31 12:40:26;;;;;;;12.68;8.63;;;17.70;99.90;;;;;;5089027;28;20054;-32
2022/08/31 12:43:04;;;;;;;13.10;8.50;;;17.50;99.90;;;;;;5098882;28;20024;-35
2022/08/31 12:45:34;;;;;;;13.40;9.65;;;17.40;99.90;;;;;;5095598;28;20028;-33
2022/08/31 12:48:15;;;;;;;13.30;10.02;;;17.40;99.90;;;;;;5099399;28;20396;-33
2022/08/31 12:51:07;;;;;;;13.80;9.68;;;17.30;99.90;;;;;;5094424;28;20043;-36
2022/08/31 12:53:33;;;;;;;12.93;9.07;;;17.30;99.90;;;;;;5096082;28;20032;-31
2022/08/31 12:56:29;;;;;;;10.85;9.43;;;17.20;99.90;;;;;;5099902;28;20120;-32
2022/08/31 12:59:24;;;;;;;14.10;10.02;;;17.30;99.90;;;;;;5088642;28;20118;-32
2022/08/31 13:01:50;;;;;;;15.38;10.25;;;17.30;99.90;;;;;;5092879;28;20035;-33
2022/08/31 13:04:18;;;;;;;16.40;9.98;;;17.30;99.90;;;;;;5093700;28;20115;-33
2022/08/31 13:06:47;;;;;;;14.93;10.68;;;17.30;99.90;;;;;;5096168;28;20044;-31
2022/08/31 13:09:35;;;;;;;12.85;10.68;;;17.50;99.90;;;;;;5097052;28;20482;-33
2022/08/31 13:12:01;;;;;;;16.13;10.30;;;17.40;99.90;;;;;;5096947;28;20028;-32
2022/08/31 13:14:39;;;;;;;14.10;10.48;;;17.40;99.90;;;;;;5097621;28;20035;-32
2022/08/31 13:17:10;;;;;;;;;;;17.50;99.90;;;;;;5098112;28;20047;-32